Time;durP1;ratioP1;P1;durP2;ratioP2;P2;SDS_P1;SDS_P2;PMS_P1;PMS_P2;Temp;Humidity;BMP_temperature;BMP_pressure;BME280_temperature;BME280_humidity;BME280_pressure;Samples;Min_cycle;Max_cycle;Signal;HPM_P1;HPM_P2
2021/01/02 00:00:23;;;;;;;1.70;1.50;;;2.80;98.20;;;;;;5022850;28;21029;-78
2021/01/02 00:03:28;;;;;;;1.63;1.40;;;2.80;98.20;;;;;;5022363;28;20459;-79
2021/01/02 00:06:09;;;;;;;1.60;1.40;;;2.80;98.20;;;;;;5016658;28;20622;-77
2021/01/02 00:08:38;;;;;;;1.70;1.53;;;2.80;98.20;;;;;;5020034;28;20574;-77
2021/01/02 00:11:23;;;;;;;1.60;1.50;;;2.80;98.20;;;;;;5023621;28;20506;-77
2021/01/02 00:14:06;;;;;;;1.67;1.50;;;2.80;98.20;;;;;;5020505;28;21146;-79
2021/01/02 00:17:02;;;;;;;1.70;1.60;;;2.80;98.20;;;;;;5020847;28;20510;-78
2021/01/02 00:19:56;;;;;;;1.70;1.50;;;2.80;98.20;;;;;;5023959;28;20566;-78
2021/01/02 00:22:34;;;;;;;1.60;1.40;;;2.80;98.20;;;;;;5024266;28;20495;-78
2021/01/02 00:25:04;;;;;;;1.63;1.40;;;2.80;98.20;;;;;;5021080;28;20494;-78
2021/01/02 00:28:01;;;;;;;1.67;1.40;;;2.80;98.20;;;;;;5025164;28;20870;-78
2021/01/02 00:31:03;;;;;;;1.70;1.50;;;2.80;98.20;;;;;;5004987;28;21031;-78
2021/01/02 00:33:46;;;;;;;1.60;1.47;;;2.80;98.20;;;;;;5023793;28;21031;-79
2021/01/02 00:36:17;;;;;;;1.70;1.40;;;2.80;98.20;;;;;;5023320;28;20557;-78
2021/01/02 00:38:46;;;;;;;1.67;1.47;;;2.80;98.20;;;;;;5020245;28;20690;-78
2021/01/02 00:41:13;;;;;;;1.63;1.43;;;2.80;98.20;;;;;;5023394;28;20468;-77
2021/01/02 00:43:45;;;;;;;1.70;1.50;;;2.80;98.20;;;;;;5018942;28;20472;-77
2021/01/02 00:46:12;;;;;;;1.70;1.60;;;2.70;98.20;;;;;;5020812;28;20464;-79
2021/01/02 00:48:40;;;;;;;1.70;1.50;;;2.80;98.20;;;;;;5018619;28;20487;-80
2021/01/02 00:51:09;;;;;;;1.60;1.50;;;2.80;98.20;;;;;;5018160;28;20467;-78
2021/01/02 00:53:53;;;;;;;1.70;1.50;;;2.80;98.20;;;;;;5021763;28;20542;-79
2021/01/02 00:56:34;;;;;;;1.70;1.60;;;2.80;98.20;;;;;;5023101;28;20501;-78
2021/01/02 00:59:36;;;;;;;1.70;1.50;;;2.80;98.20;;;;;;5019796;28;20575;-79
2021/01/02 01:02:54;;;;;;;1.70;1.40;;;2.70;98.20;;;;;;5025685;28;20471;-78
2021/01/02 01:05:21;;;;;;;1.67;1.50;;;2.80;98.20;;;;;;4981890;28;20507;-78
2021/01/02 01:07:53;;;;;;;1.70;1.53;;;2.80;98.20;;;;;;5030213;28;20947;-79
2021/01/02 01:10:23;;;;;;;1.67;1.50;;;2.80;98.20;;;;;;5024190;28;20491;-78
2021/01/02 01:12:57;;;;;;;1.60;1.50;;;2.80;98.20;;;;;;5039074;28;20492;-79
2021/01/02 01:15:24;;;;;;;1.60;1.47;;;2.80;98.20;;;;;;5031922;28;20493;-78
2021/01/02 01:18:05;;;;;;;1.60;1.40;;;2.80;98.20;;;;;;5033806;28;20518;-76
2021/01/02 01:20:32;;;;;;;1.70;1.50;;;2.80;98.20;;;;;;5031005;28;20482;-78
2021/01/02 01:23:22;;;;;;;1.80;1.70;;;2.80;98.20;;;;;;5036517;28;20452;-78
2021/01/02 01:25:57;;;;;;;1.60;1.40;;;2.80;98.20;;;;;;5033376;28;20492;-79
2021/01/02 01:28:26;;;;;;;1.60;1.50;;;2.70;98.20;;;;;;5032721;28;20898;-79
2021/01/02 01:30:55;;;;;;;1.63;1.40;;;2.70;98.20;;;;;;5022880;28;20578;-78
2021/01/02 01:33:29;;;;;;;1.70;1.53;;;2.70;98.20;;;;;;5032929;28;20848;-78
2021/01/02 01:36:01;;;;;;;3.20;3.00;;;2.70;98.20;;;;;;5033104;28;20556;-79
2021/01/02 01:38:28;;;;;;;1.60;1.50;;;2.70;98.20;;;;;;5030705;28;20484;-79
2021/01/02 01:41:04;;;;;;;1.60;1.40;;;2.70;98.20;;;;;;5029630;28;21140;-79
2021/01/02 01:44:06;;;;;;;1.63;1.50;;;2.70;98.20;;;;;;5031486;28;20495;-77
2021/01/02 01:46:34;;;;;;;1.70;1.50;;;2.70;98.20;;;;;;5031700;28;20547;-77
2021/01/02 01:49:08;;;;;;;1.63;1.43;;;2.70;98.20;;;;;;5032176;28;20539;-79
2021/01/02 01:51:57;;;;;;;1.60;1.50;;;2.70;98.20;;;;;;5030645;28;20470;-79
2021/01/02 01:54:48;;;;;;;1.63;1.40;;;2.70;98.20;;;;;;5023583;28;20479;-78
2021/01/02 01:57:22;;;;;;;1.63;1.40;;;2.70;98.20;;;;;;5032208;28;20920;-78
2021/01/02 02:00:11;;;;;;;1.70;1.50;;;2.70;98.20;;;;;;5025888;28;20495;-77
2021/01/02 02:03:04;;;;;;;1.70;1.50;;;2.70;98.20;;;;;;5032747;28;20463;-79
2021/01/02 02:05:59;;;;;;;1.63;1.50;;;2.70;98.20;;;;;;5031077;28;20487;-78
2021/01/02 02:08:43;;;;;;;1.63;1.47;;;2.70;98.20;;;;;;5030188;28;20471;-80
2021/01/02 02:11:31;;;;;;;1.77;1.67;;;2.70;98.20;;;;;;5029888;28;20466;-79
2021/01/02 02:14:08;;;;;;;1.67;1.50;;;2.70;98.20;;;;;;5033641;28;20464;-78
2021/01/02 02:16:41;;;;;;;1.60;1.40;;;2.80;98.20;;;;;;5031324;28;20451;-78
2021/01/02 02:19:30;;;;;;;1.70;1.53;;;2.80;98.20;;;;;;5031537;28;20507;-76
2021/01/02 02:22:06;;;;;;;1.70;1.50;;;2.80;98.20;;;;;;5030420;28;20459;-78
2021/01/02 02:24:33;;;;;;;1.67;1.50;;;2.70;98.20;;;;;;5030653;28;20455;-78
2021/01/02 02:27:02;;;;;;;1.60;1.50;;;2.80;98.20;;;;;;5033184;28;20463;-78
2021/01/02 02:29:38;;;;;;;1.63;1.40;;;2.70;98.20;;;;;;5030806;28;20587;-79
2021/01/02 02:32:09;;;;;;;1.67;1.50;;;2.70;98.20;;;;;;5028069;28;20494;-77
2021/01/02 02:34:37;;;;;;;1.67;1.40;;;2.70;98.20;;;;;;5033165;28;20947;-78
2021/01/02 02:37:04;;;;;;;1.70;1.40;;;2.70;98.20;;;;;;5030701;28;20470;-80
2021/01/02 02:39:30;;;;;;;1.67;1.50;;;2.70;98.20;;;;;;5030335;28;20597;-80
2021/01/02 02:42:01;;;;;;;1.67;1.50;;;2.70;98.20;;;;;;5030935;28;20460;-78
2021/01/02 02:44:31;;;;;;;1.63;1.50;;;2.70;98.20;;;;;;5032068;28;20491;-77
2021/01/02 02:47:00;;;;;;;1.67;1.53;;;2.70;98.20;;;;;;5028868;28;20550;-78
2021/01/02 02:49:31;;;;;;;1.70;1.60;;;2.70;98.20;;;;;;5030448;28;20480;-77
2021/01/02 02:52:05;;;;;;;1.70;1.60;;;2.70;98.20;;;;;;5031141;28;20464;-77
2021/01/02 02:54:32;;;;;;;1.60;1.50;;;2.70;98.20;;;;;;5018394;28;20490;-78
2021/01/02 02:56:59;;;;;;;1.67;1.50;;;2.80;98.20;;;;;;5025520;28;20837;-78
2021/01/02 02:59:25;;;;;;;1.67;1.50;;;2.80;98.20;;;;;;5028546;28;20546;-77
2021/01/02 03:01:52;;;;;;;1.60;1.47;;;2.70;98.20;;;;;;5027426;28;20500;-76
2021/01/02 03:04:19;;;;;;;1.60;1.50;;;2.70;98.20;;;;;;5028909;28;20544;-76
2021/01/02 03:06:46;;;;;;;1.70;1.50;;;2.80;98.20;;;;;;5030984;28;20460;-79
2021/01/02 03:09:13;;;;;;;1.70;1.50;;;2.80;98.20;;;;;;5028164;28;20499;-78
2021/01/02 03:11:42;;;;;;;1.70;1.50;;;2.80;98.20;;;;;;5025704;28;20514;-77
2021/01/02 03:14:09;;;;;;;1.63;1.43;;;2.80;98.20;;;;;;5031419;28;20490;-78
2021/01/02 03:16:36;;;;;;;1.70;1.50;;;2.70;98.20;;;;;;5029187;28;20468;-78
2021/01/02 03:19:05;;;;;;;1.70;1.50;;;2.80;98.20;;;;;;5028844;28;20506;-77
2021/01/02 03:21:32;;;;;;;1.70;1.60;;;2.80;98.20;;;;;;5033107;28;21013;-78
2021/01/02 03:24:02;;;;;;;1.70;1.50;;;2.80;98.20;;;;;;5030032;28;20890;-77
2021/01/02 03:26:29;;;;;;;1.70;1.50;;;2.80;98.20;;;;;;5028372;28;20515;-77
2021/01/02 03:28:56;;;;;;;1.70;1.60;;;2.80;98.20;;;;;;5028571;28;20689;-76
2021/01/02 03:31:22;;;;;;;1.67;1.50;;;2.80;98.20;;;;;;5032713;28;20495;-78
2021/01/02 03:33:49;;;;;;;1.70;1.60;;;2.80;98.20;;;;;;5031876;28;20570;-78
2021/01/02 03:36:16;;;;;;;1.70;1.50;;;2.80;98.20;;;;;;5027068;28;20566;-78
2021/01/02 03:38:52;;;;;;;1.63;1.40;;;2.80;98.20;;;;;;5029710;28;20931;-76
2021/01/02 03:41:19;;;;;;;1.70;1.60;;;2.80;98.20;;;;;;5029972;28;20474;-77
2021/01/02 03:43:45;;;;;;;1.70;1.60;;;2.80;98.20;;;;;;5028973;28;20495;-77
2021/01/02 03:46:12;;;;;;;1.63;1.47;;;2.80;98.20;;;;;;5028034;28;20467;-78
2021/01/02 03:51:09;;;;;;;1.70;1.50;;;2.80;98.20;;;;;;5059140;28;20482;-81
2021/01/02 03:53:35;;;;;;;1.67;1.53;;;2.80;98.20;;;;;;5057865;28;20965;-82
2021/01/02 03:56:25;;;;;;;1.67;1.50;;;2.80;98.20;;;;;;5058453;28;20490;-82
2021/01/02 03:58:51;;;;;;;1.67;1.50;;;2.90;98.20;;;;;;5063860;28;20494;-82
2021/01/02 04:01:18;;;;;;;1.67;1.50;;;2.90;98.20;;;;;;5063840;28;20474;-81
2021/01/02 04:03:44;;;;;;;1.67;1.50;;;2.90;98.20;;;;;;5063294;28;20505;-81
2021/01/02 04:06:11;;;;;;;1.60;1.40;;;2.90;98.20;;;;;;5060443;28;20455;-79
2021/01/02 04:08:37;;;;;;;1.67;1.40;;;2.90;98.20;;;;;;5056344;28;20494;-80
2021/01/02 04:11:04;;;;;;;1.63;1.40;;;2.90;98.20;;;;;;5058529;28;20455;-81
2021/01/02 04:13:31;;;;;;;1.63;1.40;;;2.90;98.20;;;;;;5058061;28;20481;-81
2021/01/02 04:15:57;;;;;;;1.70;1.50;;;2.90;98.20;;;;;;5057488;28;20510;-81
2021/01/02 04:18:24;;;;;;;1.67;1.50;;;2.90;98.20;;;;;;5061529;28;20494;-80
2021/01/02 04:20:50;;;;;;;1.70;1.50;;;2.90;98.20;;;;;;5065811;28;20482;-77
2021/01/02 04:23:17;;;;;;;1.67;1.40;;;2.90;98.20;;;;;;5057895;28;20502;-81
2021/01/02 04:25:43;;;;;;;1.70;1.50;;;2.90;98.20;;;;;;5051331;28;20474;-81
2021/01/02 04:28:11;;;;;;;1.67;1.50;;;2.90;98.20;;;;;;5053220;28;20470;-82
2021/01/02 04:30:38;;;;;;;1.70;1.60;;;2.90;98.20;;;;;;5045568;28;20533;-80
2021/01/02 04:33:05;;;;;;;1.60;1.40;;;2.90;98.20;;;;;;5053092;28;20542;-80
2021/01/02 04:35:31;;;;;;;1.60;1.40;;;2.90;98.20;;;;;;5053949;28;20616;-79
2021/01/02 04:38:00;;;;;;;1.63;1.50;;;2.90;98.20;;;;;;5052525;28;20469;-80
2021/01/02 04:40:27;;;;;;;1.63;1.50;;;2.90;98.20;;;;;;5047931;28;20506;-79
2021/01/02 04:42:54;;;;;;;1.63;1.50;;;2.90;98.20;;;;;;5055512;28;20503;-80
2021/01/02 04:45:21;;;;;;;1.70;1.50;;;2.90;98.20;;;;;;5056115;28;20888;-80
2021/01/02 04:47:51;;;;;;;1.67;1.50;;;2.90;98.20;;;;;;5057843;28;20463;-81
2021/01/02 04:50:18;;;;;;;1.70;1.60;;;2.90;98.20;;;;;;5049548;28;20487;-81
2021/01/02 04:52:46;;;;;;;1.60;1.50;;;2.90;98.20;;;;;;5054064;28;20502;-81
2021/01/02 04:55:17;;;;;;;1.70;1.50;;;2.90;98.20;;;;;;5052723;28;20510;-80
2021/01/02 04:57:47;;;;;;;1.70;1.50;;;2.90;98.20;;;;;;5057916;28;20452;-80
2021/01/02 05:00:15;;;;;;;1.73;1.63;;;2.90;98.20;;;;;;5052549;28;20538;-79
2021/01/02 05:02:44;;;;;;;1.60;1.47;;;2.90;98.20;;;;;;5054735;28;20945;-78
2021/01/02 05:05:12;;;;;;;1.70;1.50;;;2.90;98.20;;;;;;5057506;28;20455;-79
2021/01/02 05:07:38;;;;;;;1.70;1.50;;;2.90;98.20;;;;;;5061082;28;20550;-79
2021/01/02 05:10:05;;;;;;;1.70;1.50;;;2.90;98.20;;;;;;5059124;28;20518;-78
2021/01/02 05:12:33;;;;;;;1.70;1.50;;;2.90;98.20;;;;;;5054226;28;20878;-80
2021/01/02 05:15:03;;;;;;;1.63;1.50;;;2.90;98.20;;;;;;5056182;28;20485;-79
2021/01/02 05:17:30;;;;;;;1.60;1.50;;;2.90;98.20;;;;;;5060356;28;20462;-79
2021/01/02 05:20:12;;;;;;;1.70;1.50;;;2.80;98.20;;;;;;5050408;28;20474;-78
2021/01/02 05:22:39;;;;;;;1.70;1.60;;;2.90;98.20;;;;;;5049390;28;20877;-79
2021/01/02 05:25:09;;;;;;;1.67;1.40;;;2.90;98.20;;;;;;5060643;28;20682;-81
2021/01/02 05:27:37;;;;;;;1.60;1.50;;;2.90;98.20;;;;;;5051990;28;20498;-79
2021/01/02 05:30:20;;;;;;;1.80;1.70;;;2.90;98.20;;;;;;5055478;28;20483;-80
2021/01/02 05:33:08;;;;;;;1.70;1.50;;;2.90;98.20;;;;;;5058484;28;20459;-80
2021/01/02 05:35:39;;;;;;;1.87;1.77;;;2.90;98.20;;;;;;5056423;28;20834;-80
2021/01/02 05:38:13;;;;;;;1.80;1.70;;;2.90;98.20;;;;;;5055502;28;20854;-83
2021/01/02 05:40:41;;;;;;;1.70;1.47;;;2.90;98.20;;;;;;5050988;28;20509;-79
2021/01/02 05:43:08;;;;;;;1.77;1.67;;;2.90;98.20;;;;;;5058466;28;20466;-80
2021/01/02 05:45:35;;;;;;;1.60;1.40;;;2.90;98.20;;;;;;5051927;28;20454;-78
2021/01/02 05:48:13;;;;;;;1.70;1.60;;;2.90;98.20;;;;;;5048263;28;20470;-79
2021/01/02 05:50:52;;;;;;;1.70;1.50;;;2.90;98.20;;;;;;5046362;28;20487;-80
2021/01/02 05:53:23;;;;;;;1.60;1.50;;;2.90;98.20;;;;;;5058548;28;20467;-78
2021/01/02 05:56:01;;;;;;;1.60;1.40;;;2.90;98.20;;;;;;5050507;28;20511;-80
2021/01/02 05:58:29;;;;;;;1.70;1.50;;;2.90;98.20;;;;;;5055468;28;20489;-80
2021/01/02 06:01:07;;;;;;;1.70;1.60;;;2.90;98.20;;;;;;5057446;28;21021;-80
2021/01/02 06:03:35;;;;;;;1.67;1.50;;;2.90;98.20;;;;;;5055155;28;20470;-80
2021/01/02 06:06:04;;;;;;;1.70;1.50;;;2.90;98.20;;;;;;5055917;28;20482;-77
2021/01/02 06:08:33;;;;;;;1.67;1.40;;;2.90;98.20;;;;;;5049401;28;20464;-79
2021/01/02 06:11:01;;;;;;;1.60;1.43;;;2.90;98.20;;;;;;5056850;28;20482;-77
2021/01/02 06:13:29;;;;;;;1.70;1.53;;;2.90;98.20;;;;;;5053226;28;20492;-80
2021/01/02 06:16:01;;;;;;;1.67;1.47;;;2.90;98.20;;;;;;5055579;28;20487;-80
2021/01/02 06:18:28;;;;;;;1.63;1.40;;;2.90;98.20;;;;;;5051102;28;20490;-78
2021/01/02 06:20:56;;;;;;;1.67;1.50;;;2.90;98.20;;;;;;5053777;28;20483;-78
2021/01/02 06:23:24;;;;;;;1.60;1.40;;;2.90;98.20;;;;;;5053906;28;20464;-79
2021/01/02 06:25:55;;;;;;;1.80;1.70;;;3.00;98.20;;;;;;5050324;28;20781;-80
2021/01/02 06:28:24;;;;;;;1.63;1.40;;;2.90;98.20;;;;;;5058644;28;20458;-80
2021/01/02 06:30:51;;;;;;;1.63;1.40;;;3.00;98.20;;;;;;5046636;28;20761;-81
2021/01/02 06:33:18;;;;;;;1.70;1.50;;;3.00;98.20;;;;;;5048421;28;20455;-78
2021/01/02 06:35:44;;;;;;;1.70;1.50;;;3.00;98.20;;;;;;5043317;28;20476;-80
2021/01/02 06:38:17;;;;;;;1.70;1.60;;;3.00;98.20;;;;;;5054764;28;20459;-80
2021/01/02 06:40:46;;;;;;;1.70;1.40;;;3.00;98.20;;;;;;5046476;28;20499;-80
2021/01/02 06:43:14;;;;;;;1.60;1.50;;;3.00;98.20;;;;;;5051514;28;20514;-80
2021/01/02 06:46:00;;;;;;;1.67;1.47;;;3.00;98.20;;;;;;5051464;28;20879;-80
2021/01/02 06:48:34;;;;;;;1.70;1.50;;;3.00;98.20;;;;;;5050177;28;20525;-80
2021/01/02 06:51:03;;;;;;;1.70;1.50;;;3.00;98.20;;;;;;5052354;28;20525;-77
2021/01/02 06:53:31;;;;;;;1.70;1.50;;;3.00;98.20;;;;;;5053761;28;20454;-78
2021/01/02 06:55:59;;;;;;;1.60;1.40;;;3.00;98.20;;;;;;5051121;28;20516;-79
2021/01/02 06:58:34;;;;;;;1.67;1.40;;;3.00;98.20;;;;;;5045750;28;20467;-79
2021/01/02 07:01:01;;;;;;;1.70;1.50;;;3.00;98.20;;;;;;5051919;28;20561;-79
2021/01/02 07:03:44;;;;;;;1.70;1.50;;;3.00;98.20;;;;;;5051938;28;20497;-81
2021/01/02 07:06:21;;;;;;;1.60;1.40;;;3.00;98.20;;;;;;5052471;28;20459;-80
2021/01/02 07:08:48;;;;;;;1.60;1.40;;;3.00;98.20;;;;;;5050547;28;20491;-80
2021/01/02 07:11:29;;;;;;;1.70;1.50;;;3.00;98.20;;;;;;5058163;28;20482;-79
2021/01/02 07:14:18;;;;;;;1.60;1.50;;;3.00;98.20;;;;;;5049087;28;20466;-81
2021/01/02 07:16:45;;;;;;;1.70;1.40;;;3.00;98.20;;;;;;5043433;28;20590;-79
2021/01/02 07:19:33;;;;;;;1.67;1.47;;;3.00;98.20;;;;;;5043305;28;20517;-79
2021/01/02 07:22:01;;;;;;;1.70;1.60;;;3.00;98.20;;;;;;5038377;28;20497;-79
2021/01/02 07:24:29;;;;;;;1.73;1.63;;;3.00;98.20;;;;;;5044166;28;20513;-79
2021/01/02 07:27:01;;;;;;;1.70;1.50;;;3.00;98.20;;;;;;5039158;28;20499;-79
2021/01/02 07:29:28;;;;;;;1.70;1.50;;;3.00;98.20;;;;;;5047015;28;20530;-79
2021/01/02 07:32:04;;;;;;;1.63;1.40;;;3.00;98.20;;;;;;5047366;28;20521;-79
2021/01/02 07:34:31;;;;;;;1.60;1.50;;;3.00;98.20;;;;;;5050004;28;20481;-78
2021/01/02 07:37:02;;;;;;;1.67;1.40;;;3.00;98.20;;;;;;5051499;28;20540;-79
2021/01/02 07:39:29;;;;;;;1.60;1.30;;;3.00;98.20;;;;;;5050860;28;20486;-77
2021/01/02 07:42:00;;;;;;;1.70;1.50;;;3.00;98.20;;;;;;5049262;28;20547;-80
2021/01/02 07:44:28;;;;;;;1.70;1.60;;;3.00;98.20;;;;;;5055745;28;20467;-80
2021/01/02 07:46:54;;;;;;;1.70;1.57;;;3.00;98.20;;;;;;5049904;28;20455;-80
2021/01/02 07:49:21;;;;;;;1.63;1.47;;;3.00;98.20;;;;;;5035773;28;20526;-78
2021/01/02 07:51:49;;;;;;;1.70;1.40;;;3.00;98.20;;;;;;5040744;28;20498;-79
2021/01/02 07:54:28;;;;;;;1.70;1.60;;;3.10;98.20;;;;;;5047306;28;20463;-78
2021/01/02 07:56:54;;;;;;;1.60;1.40;;;3.10;98.20;;;;;;5055869;28;20494;-80
2021/01/02 07:59:22;;;;;;;1.70;1.50;;;3.10;98.20;;;;;;5045300;28;20525;-81
2021/01/02 08:01:52;;;;;;;1.70;1.50;;;3.10;98.20;;;;;;5055181;28;20841;-79
2021/01/02 08:04:22;;;;;;;1.70;1.50;;;3.10;98.20;;;;;;5052913;28;20985;-78
2021/01/02 08:06:51;;;;;;;1.60;1.33;;;3.00;98.20;;;;;;5044327;28;20527;-79
2021/01/02 08:09:25;;;;;;;1.60;1.50;;;3.10;98.20;;;;;;5057162;28;20520;-78
2021/01/02 08:11:54;;;;;;;1.80;1.70;;;3.10;98.20;;;;;;5056000;28;20459;-79
2021/01/02 08:14:24;;;;;;;1.63;1.40;;;3.10;98.20;;;;;;5048043;28;20455;-80
2021/01/02 08:17:02;;;;;;;1.60;1.40;;;3.10;98.20;;;;;;5048459;28;20483;-79
2021/01/02 08:19:36;;;;;;;1.70;1.60;;;3.10;98.20;;;;;;5051531;28;20891;-79
2021/01/02 08:22:04;;;;;;;1.60;1.40;;;3.10;98.20;;;;;;5051242;28;20838;-79
2021/01/02 08:24:30;;;;;;;1.70;1.43;;;3.10;98.20;;;;;;5052289;28;20528;-78
2021/01/02 08:26:57;;;;;;;1.67;1.37;;;3.20;98.20;;;;;;5053315;28;20479;-79
2021/01/02 08:29:35;;;;;;;1.67;1.40;;;3.20;98.20;;;;;;5054548;28;20492;-79
2021/01/02 08:32:10;;;;;;;1.67;1.47;;;3.20;98.20;;;;;;5050595;28;20547;-79
2021/01/02 08:34:38;;;;;;;1.70;1.60;;;3.30;98.20;;;;;;5051325;28;20542;-79
2021/01/02 08:37:07;;;;;;;1.70;1.50;;;3.30;98.20;;;;;;5052528;28;20850;-80
2021/01/02 08:39:38;;;;;;;1.60;1.40;;;3.30;98.20;;;;;;5049580;28;20506;-79
2021/01/02 08:42:06;;;;;;;1.70;1.53;;;3.30;98.20;;;;;;5054007;28;20463;-78
2021/01/02 08:44:35;;;;;;;1.60;1.40;;;3.30;98.20;;;;;;5056801;28;20467;-78
2021/01/02 08:47:05;;;;;;;1.70;1.50;;;3.40;98.20;;;;;;5047902;28;20464;-79
2021/01/02 08:49:34;;;;;;;1.70;1.50;;;3.40;98.20;;;;;;5048347;28;20497;-77
2021/01/02 08:52:22;;;;;;;1.67;1.40;;;3.40;98.20;;;;;;5052837;28;20900;-78
2021/01/02 08:54:50;;;;;;;1.63;1.40;;;3.40;98.20;;;;;;5050977;28;20455;-79
2021/01/02 08:57:26;;;;;;;1.60;1.40;;;3.40;98.20;;;;;;5046717;28;20468;-77
2021/01/02 09:00:04;;;;;;;1.60;1.40;;;3.40;98.20;;;;;;5053417;28;20486;-78
2021/01/02 09:02:31;;;;;;;1.70;1.60;;;3.50;98.20;;;;;;5054438;28;20463;-78
2021/01/02 09:05:09;;;;;;;1.70;1.50;;;3.50;98.20;;;;;;5058377;28;20462;-79
2021/01/02 09:07:59;;;;;;;1.60;1.40;;;3.50;98.20;;;;;;5060522;28;20512;-79
2021/01/02 09:10:58;;;;;;;1.60;1.40;;;3.50;98.20;;;;;;5055067;28;20607;-78
2021/01/02 09:13:27;;;;;;;1.60;1.40;;;3.50;98.20;;;;;;5056496;28;20463;-79
2021/01/02 09:16:01;;;;;;;1.70;1.50;;;3.50;98.20;;;;;;5056139;28;20497;-78
2021/01/02 09:18:41;;;;;;;1.60;1.37;;;3.50;98.20;;;;;;5049065;28;20467;-80
2021/01/02 09:21:45;;;;;;;1.70;1.60;;;3.60;98.20;;;;;;5043336;28;20464;-78
2021/01/02 09:24:24;;;;;;;1.60;1.40;;;3.60;98.20;;;;;;5047939;28;20455;-78
2021/01/02 09:27:09;;;;;;;1.70;1.60;;;3.60;98.20;;;;;;5051894;28;20478;-79
2021/01/02 09:32:44;;;;;;;1.60;1.30;;;3.70;98.20;;;;;;5044361;28;20455;-79
2021/01/02 09:35:13;;;;;;;1.60;1.40;;;3.80;98.20;;;;;;5050339;28;20545;-78
2021/01/02 09:37:41;;;;;;;1.70;1.40;;;3.80;98.20;;;;;;5050924;28;20505;-79
2021/01/02 09:40:19;;;;;;;1.60;1.40;;;3.80;98.20;;;;;;5098507;23;20514;-78
2021/01/02 09:42:46;;;;;;;1.67;1.37;;;3.90;98.20;;;;;;5039387;28;20880;-77
2021/01/02 09:45:13;;;;;;;1.63;1.40;;;3.90;98.20;;;;;;5034140;28;20452;-79
2021/01/02 09:47:40;;;;;;;1.70;1.40;;;3.90;98.20;;;;;;5039684;28;20486;-78
2021/01/02 09:50:07;;;;;;;1.60;1.40;;;3.90;98.20;;;;;;5035756;28;20486;-78
2021/01/02 09:52:34;;;;;;;1.80;1.70;;;4.00;98.20;;;;;;5037474;28;20494;-78
2021/01/02 09:55:01;;;;;;;1.60;1.33;;;4.00;98.20;;;;;;5035465;28;20464;-79
2021/01/02 09:57:44;;;;;;;1.63;1.40;;;4.00;98.20;;;;;;5035510;28;20750;-79
2021/01/02 10:00:12;;;;;;;1.67;1.47;;;4.00;98.20;;;;;;5034875;28;20515;-79
2021/01/02 10:02:38;;;;;;;1.67;1.40;;;4.00;98.20;;;;;;5042328;28;20598;-78
2021/01/02 10:05:06;;;;;;;1.70;1.40;;;4.00;98.20;;;;;;5038369;28;20975;-78
2021/01/02 10:07:33;;;;;;;1.67;1.40;;;4.00;98.20;;;;;;5029510;28;20468;-78
2021/01/02 10:09:59;;;;;;;1.70;1.40;;;4.00;98.20;;;;;;5035742;28;20487;-79
2021/01/02 10:12:26;;;;;;;1.60;1.40;;;4.00;98.20;;;;;;5035786;28;20471;-78
2021/01/02 10:14:53;;;;;;;1.67;1.37;;;4.00;98.20;;;;;;5035095;28;20468;-79
2021/01/02 10:17:20;;;;;;;1.70;1.40;;;4.00;98.20;;;;;;5038607;28;20502;-77
2021/01/02 10:19:51;;;;;;;1.70;1.40;;;4.00;98.20;;;;;;5035353;28;20507;-77
2021/01/02 10:22:41;;;;;;;1.63;1.40;;;4.10;98.20;;;;;;5040144;28;20493;-79
2021/01/02 10:25:09;;;;;;;1.70;1.40;;;4.10;98.20;;;;;;5030943;28;20468;-77
2021/01/02 10:27:36;;;;;;;1.70;1.60;;;4.20;98.20;;;;;;5035688;28;20703;-79
2021/01/02 10:30:07;;;;;;;1.70;1.40;;;4.20;98.20;;;;;;5033959;28;20582;-79
2021/01/02 10:32:33;;;;;;;1.70;1.53;;;4.30;98.20;;;;;;5039122;28;20502;-78
2021/01/02 10:35:00;;;;;;;1.67;1.30;;;4.30;98.20;;;;;;5042247;28;20472;-79
2021/01/02 10:37:35;;;;;;;1.67;1.40;;;4.40;98.20;;;;;;5045574;28;20458;-79
2021/01/02 10:40:03;;;;;;;1.63;1.40;;;4.40;98.20;;;;;;5036968;28;20529;-79
2021/01/02 10:42:32;;;;;;;1.70;1.40;;;4.50;98.20;;;;;;5038494;28;20470;-78
2021/01/02 10:45:00;;;;;;;1.60;1.30;;;4.50;98.20;;;;;;5027122;28;20503;-77
2021/01/02 10:47:30;;;;;;;1.70;1.60;;;4.60;98.20;;;;;;5029714;28;20464;-78
2021/01/02 10:49:57;;;;;;;1.67;1.40;;;4.70;98.20;;;;;;5028336;28;21030;-78
2021/01/02 10:52:26;;;;;;;1.70;1.57;;;4.80;98.20;;;;;;5030651;28;20506;-79
2021/01/02 10:54:53;;;;;;;1.63;1.30;;;4.90;98.20;;;;;;5028739;28;20575;-78
2021/01/02 10:57:24;;;;;;;1.67;1.37;;;4.90;98.20;;;;;;5038034;28;20503;-78
2021/01/02 10:59:56;;;;;;;1.67;1.40;;;5.00;98.20;;;;;;5029284;28;20480;-77
2021/01/02 11:02:24;;;;;;;1.60;1.33;;;5.00;98.20;;;;;;5028541;28;20975;-78
2021/01/02 11:04:53;;;;;;;1.60;1.30;;;5.10;98.20;;;;;;5041138;28;20569;-78
2021/01/02 11:07:23;;;;;;;1.60;1.20;;;5.10;98.20;;;;;;5029643;28;20462;-78
2021/01/02 11:09:51;;;;;;;1.70;1.40;;;5.10;98.20;;;;;;5030063;28;20547;-79
2021/01/02 11:12:17;;;;;;;1.60;1.20;;;5.20;98.20;;;;;;5037996;28;20841;-78
2021/01/02 11:14:46;;;;;;;1.60;1.30;;;5.20;98.20;;;;;;5025759;28;21017;-79
2021/01/02 11:17:14;;;;;;;1.60;1.30;;;5.30;98.20;;;;;;5031975;28;20536;-79
2021/01/02 11:19:40;;;;;;;1.63;1.30;;;5.30;98.20;;;;;;5025120;28;20522;-79
2021/01/02 11:22:07;;;;;;;1.60;1.27;;;5.40;98.20;;;;;;5026414;28;20460;-78
2021/01/02 11:24:39;;;;;;;1.60;1.27;;;5.40;98.20;;;;;;5030011;28;20472;-79
2021/01/02 11:27:06;;;;;;;1.70;1.40;;;5.50;98.20;;;;;;5025232;28;20494;-77
2021/01/02 11:29:33;;;;;;;1.60;1.30;;;5.50;98.20;;;;;;5020685;28;20483;-78
2021/01/02 11:32:03;;;;;;;1.70;1.30;;;5.50;98.20;;;;;;5018110;28;20815;-77
2021/01/02 11:34:29;;;;;;;1.60;1.20;;;5.50;98.20;;;;;;5024836;28;20534;-78
2021/01/02 11:36:58;;;;;;;1.60;1.30;;;5.60;98.20;;;;;;5039888;28;20483;-76
2021/01/02 11:39:26;;;;;;;1.63;1.30;;;5.60;98.20;;;;;;5043047;28;20552;-78
2021/01/02 11:41:53;;;;;;;1.70;1.40;;;5.60;98.20;;;;;;5031642;28;20464;-78
2021/01/02 11:44:21;;;;;;;1.70;1.40;;;5.60;98.20;;;;;;5031328;28;20466;-76
2021/01/02 11:46:50;;;;;;;1.70;1.50;;;5.70;98.20;;;;;;5023226;28;20490;-78
2021/01/02 11:49:20;;;;;;;1.60;1.23;;;5.70;98.20;;;;;;5022797;28;20938;-78
2021/01/02 11:51:50;;;;;;;1.60;1.30;;;5.70;98.20;;;;;;5024819;28;20476;-78
2021/01/02 11:54:17;;;;;;;2.93;2.73;;;5.70;98.20;;;;;;5018057;28;20503;-78
2021/01/02 11:56:45;;;;;;;1.63;1.30;;;5.70;98.20;;;;;;5043589;28;20608;-77
2021/01/02 11:59:13;;;;;;;1.63;1.20;;;5.80;98.20;;;;;;5034654;28;20520;-77
2021/01/02 12:01:41;;;;;;;1.70;1.40;;;5.80;98.20;;;;;;5023351;28;20466;-79
2021/01/02 12:04:14;;;;;;;1.70;1.37;;;5.90;98.20;;;;;;5029198;28;20463;-79
2021/01/02 12:06:45;;;;;;;3.00;2.80;;;6.00;98.20;;;;;;5034982;28;21006;-79
2021/01/02 12:09:13;;;;;;;1.70;1.40;;;6.10;98.20;;;;;;5025500;28;20484;-78
2021/01/02 12:11:44;;;;;;;1.63;1.30;;;6.10;98.20;;;;;;5032707;28;20467;-79
2021/01/02 12:14:14;;;;;;;1.63;1.30;;;6.20;98.20;;;;;;5029476;28;21016;-78
2021/01/02 12:16:43;;;;;;;1.63;1.30;;;6.20;98.20;;;;;;5033132;28;20476;-79
2021/01/02 12:19:17;;;;;;;1.60;1.20;;;6.20;98.20;;;;;;5028644;28;20488;-77
2021/01/02 12:21:44;;;;;;;1.60;1.20;;;6.20;98.20;;;;;;5030936;28;20550;-77
2021/01/02 12:24:10;;;;;;;1.60;1.27;;;6.20;98.20;;;;;;5026278;28;21005;-77
2021/01/02 12:26:42;;;;;;;1.60;1.20;;;6.20;98.20;;;;;;5027423;28;20495;-77
2021/01/02 12:29:09;;;;;;;1.63;1.30;;;6.30;98.20;;;;;;5021013;28;20945;-78
2021/01/02 12:31:40;;;;;;;1.70;1.40;;;6.20;98.20;;;;;;5024727;28;20826;-78
2021/01/02 12:34:06;;;;;;;1.70;1.30;;;6.30;98.20;;;;;;5025143;28;20479;-80
2021/01/02 12:36:35;;;;;;;1.60;1.33;;;6.30;98.20;;;;;;5020917;28;20487;-78
2021/01/02 12:39:01;;;;;;;1.70;1.40;;;6.30;98.20;;;;;;5030482;28;20526;-79
2021/01/02 12:41:28;;;;;;;1.60;1.30;;;6.30;98.20;;;;;;5037835;28;20470;-78
2021/01/02 12:43:54;;;;;;;1.70;1.40;;;6.30;98.20;;;;;;5024760;28;20508;-78
2021/01/02 12:46:21;;;;;;;1.60;1.20;;;6.30;98.20;;;;;;5025461;28;20547;-77
2021/01/02 12:48:49;;;;;;;1.67;1.20;;;6.40;98.20;;;;;;5020813;28;20770;-79
2021/01/02 12:51:20;;;;;;;1.70;1.40;;;6.50;98.20;;;;;;5021976;28;20549;-78
2021/01/02 12:53:48;;;;;;;1.60;1.20;;;6.60;98.20;;;;;;5019458;28;20470;-78
2021/01/02 12:56:15;;;;;;;1.60;1.20;;;6.70;98.20;;;;;;5025731;28;20963;-79
2021/01/02 12:58:42;;;;;;;1.60;1.30;;;6.70;98.20;;;;;;5026643;28;20530;-76
2021/01/02 13:01:08;;;;;;;1.60;1.30;;;6.80;98.20;;;;;;5024013;28;21013;-78
2021/01/02 13:03:35;;;;;;;1.60;1.27;;;6.90;98.20;;;;;;5022921;28;21119;-77
2021/01/02 13:06:03;;;;;;;1.67;1.30;;;7.00;98.20;;;;;;5027706;28;20771;-76
2021/01/02 13:08:29;;;;;;;1.60;1.30;;;7.00;98.20;;;;;;5026916;28;20518;-76
2021/01/02 13:10:56;;;;;;;1.60;1.20;;;7.00;98.20;;;;;;5034346;28;20499;-77
2021/01/02 13:13:22;;;;;;;1.63;1.30;;;7.10;98.20;;;;;;5037277;28;20900;-78
2021/01/02 13:15:49;;;;;;;1.63;1.27;;;7.10;98.20;;;;;;5031802;28;20529;-78
2021/01/02 13:18:15;;;;;;;1.67;1.20;;;7.10;98.20;;;;;;5037364;28;20620;-78
2021/01/02 13:20:59;;;;;;;1.63;1.20;;;7.10;98.20;;;;;;5042571;28;20491;-79
2021/01/02 13:23:27;;;;;;;1.60;1.20;;;7.10;98.20;;;;;;5032205;28;20463;-77
2021/01/02 13:25:54;;;;;;;1.67;1.30;;;7.10;98.20;;;;;;5026360;28;20483;-78